createdAt,value
2023-04-02T00:00:14.996Z,16.32
2023-04-02T00:02:55.329Z,16.27
2023-04-02T00:05:46.363Z,16.23
2023-04-02T00:08:22.490Z,16.27
2023-04-02T00:10:51.063Z,16.29
2023-04-02T00:13:25.707Z,16.26
2023-04-02T00:15:56.630Z,16.31
2023-04-02T00:18:24.144Z,16.19
2023-04-02T00:20:55.028Z,16.22
2023-04-02T00:23:23.170Z,16.24
2023-04-02T00:25:49.893Z,16.14
2023-04-02T00:28:19.302Z,16.06
2023-04-02T00:30:49.059Z,16.14
2023-04-02T00:33:18.403Z,16.11
2023-04-02T00:35:45.917Z,16.04
2023-04-02T00:38:21.301Z,16.15
2023-04-02T00:40:50.132Z,16.15
2023-04-02T00:43:16.982Z,16.19
2023-04-02T00:45:46.925Z,16.19
2023-04-02T00:48:23.673Z,16.20
2023-04-02T00:50:53.322Z,16.34
2023-04-02T00:53:26.694Z,16.36
2023-04-02T00:55:57.372Z,16.41
2023-04-02T00:58:27.484Z,16.45
2023-04-02T01:00:54.841Z,16.49
2023-04-02T01:03:30.942Z,16.42
2023-04-02T01:06:02.340Z,16.40
2023-04-02T01:08:42.322Z,16.43
2023-04-02T01:11:24.354Z,16.38
2023-04-02T01:14:00.574Z,16.36
2023-04-02T01:16:38.307Z,16.37
2023-04-02T01:19:22.034Z,16.47
2023-04-02T01:21:56.550Z,16.33
2023-04-02T01:24:30.136Z,16.30
2023-04-02T01:27:00.579Z,16.29
2023-04-02T01:29:31.467Z,16.39
2023-04-02T01:32:01.868Z,16.39
2023-04-02T01:34:29.810Z,16.30
2023-04-02T01:37:20.655Z,16.38
2023-04-02T01:40:00.152Z,16.39
2023-04-02T01:42:35.877Z,16.41
2023-04-02T01:45:07.967Z,16.37
2023-04-02T01:47:34.955Z,16.46
2023-04-02T01:50:05.055Z,16.47
2023-04-02T01:52:39.343Z,16.46
2023-04-02T01:55:07.921Z,16.45
2023-04-02T01:57:34.956Z,16.39
2023-04-02T02:00:04.335Z,16.30
2023-04-02T02:02:31.227Z,16.24
2023-04-02T02:04:58.395Z,16.32
2023-04-02T02:07:25.187Z,16.20
2023-04-02T02:09:52.129Z,16.24
2023-04-02T02:12:18.977Z,16.25
2023-04-02T02:14:47.854Z,16.24
2023-04-02T02:17:19.239Z,16.37
2023-04-02T02:19:48.018Z,16.26
2023-04-02T02:22:24.913Z,16.35
2023-04-02T02:24:52.050Z,16.28
2023-04-02T02:27:45.409Z,16.41
2023-04-02T02:30:17.408Z,16.34
2023-04-02T02:32:53.684Z,16.29
2023-04-02T02:35:25.498Z,16.26
2023-04-02T02:37:57.581Z,16.47
2023-04-02T02:40:29.996Z,16.33
2023-04-02T02:43:00.239Z,16.38
2023-04-02T02:45:33.298Z,16.30
2023-04-02T02:48:03.954Z,16.35
2023-04-02T02:50:33.614Z,16.43
2023-04-02T02:53:05.147Z,16.42
2023-04-02T02:55:35.217Z,16.41
2023-04-02T02:58:07.538Z,16.36
2023-04-02T03:00:36.136Z,16.32
2023-04-02T03:03:09.412Z,16.39
2023-04-02T03:05:37.755Z,16.37
2023-04-02T03:08:11.510Z,16.34
2023-04-02T03:10:44.008Z,16.33
2023-04-02T03:13:20.575Z,16.40
2023-04-02T03:15:56.688Z,16.44
2023-04-02T03:18:34.521Z,16.59
2023-04-02T03:21:07.056Z,16.48
2023-04-02T03:23:39.575Z,16.55
2023-04-02T03:26:11.224Z,16.58
2023-04-02T03:28:43.886Z,16.27
2023-04-02T03:31:16.383Z,16.30
2023-04-02T03:33:48.214Z,16.15
2023-04-02T03:36:22.776Z,16.35
2023-04-02T03:38:54.399Z,16.29
2023-04-02T03:41:36.823Z,16.21
2023-04-02T03:44:11.486Z,16.22
2023-04-02T03:46:41.557Z,16.29
2023-04-02T03:49:13.564Z,16.29
2023-04-02T03:51:48.654Z,16.33
2023-04-02T03:54:16.581Z,16.23
2023-04-02T03:56:45.642Z,16.26
2023-04-02T03:59:20.876Z,16.28
2023-04-02T04:01:55.228Z,16.31
2023-04-02T04:04:27.397Z,16.33
2023-04-02T04:06:57.143Z,16.48
2023-04-02T04:09:29.141Z,16.39
2023-04-02T04:12:08.697Z,16.36
2023-04-02T04:14:42.341Z,16.32
2023-04-02T04:17:17.015Z,16.24
2023-04-02T04:19:48.413Z,16.25
2023-04-02T04:22:17.715Z,16.29
2023-04-02T04:24:45.311Z,16.24
2023-04-02T04:27:23.620Z,16.27
2023-04-02T04:29:57.912Z,16.36
2023-04-02T04:32:29.382Z,16.32
2023-04-02T04:35:14.908Z,16.27
2023-04-02T04:37:45.545Z,16.32
2023-04-02T04:40:19.651Z,16.26
2023-04-02T04:42:50.652Z,16.27
2023-04-02T04:45:34.410Z,16.22
2023-04-02T04:48:07.722Z,16.24
2023-04-02T04:50:40.916Z,16.32
2023-04-02T04:53:13.778Z,16.22
2023-04-02T04:55:43.501Z,16.07
2023-04-02T04:58:18.852Z,16.05
2023-04-02T05:00:55.706Z,16.12
2023-04-02T05:03:30.298Z,16.16
2023-04-02T05:06:08.276Z,16.14
2023-04-02T05:08:39.333Z,16.34
2023-04-02T05:11:11.491Z,16.14
2023-04-02T05:13:44.392Z,16.13
2023-04-02T05:16:16.928Z,16.11
2023-04-02T05:18:47.334Z,16.11
2023-04-02T05:21:23.073Z,16.18
2023-04-02T05:23:56.288Z,16.34
2023-04-02T05:26:29.757Z,16.30
2023-04-02T05:29:02.612Z,16.19
2023-04-02T05:31:37.755Z,16.15
2023-04-02T05:34:04.544Z,16.10
2023-04-02T05:36:33.134Z,16.12
2023-04-02T05:39:00.499Z,16.08
2023-04-02T05:41:29.238Z,16.13
2023-04-02T05:44:03.812Z,16.23
2023-04-02T05:46:36.077Z,16.17
2023-04-02T05:49:07.207Z,16.03
2023-04-02T05:51:41.362Z,16.16
2023-04-02T05:54:18.396Z,16.15
2023-04-02T05:56:49.150Z,16.26
2023-04-02T05:59:19.890Z,16.14
2023-04-02T06:01:51.771Z,16.04
2023-04-02T06:04:25.649Z,15.95
2023-04-02T06:07:03.406Z,16.17
2023-04-02T06:09:37.243Z,16.11
2023-04-02T06:12:16.514Z,16.12
2023-04-02T06:14:43.352Z,16.16
2023-04-02T06:17:14.280Z,16.07
2023-04-02T06:19:41.397Z,16.12
2023-04-02T06:22:19.959Z,16.19
2023-04-02T06:24:50.165Z,16.17
2023-04-02T06:27:19.806Z,16.05
2023-04-02T06:29:50.303Z,15.95
2023-04-02T06:32:17.030Z,15.82
2023-04-02T06:34:43.822Z,15.97
2023-04-02T06:37:19.611Z,15.90
2023-04-02T06:39:46.362Z,15.99
2023-04-02T06:42:18.006Z,16.02
2023-04-02T06:44:44.939Z,16.06
2023-04-02T06:47:22.958Z,15.97
2023-04-02T06:49:57.797Z,15.80
2023-04-02T06:52:29.334Z,15.78
2023-04-02T06:54:56.064Z,15.72
2023-04-02T06:57:23.029Z,15.78
2023-04-02T06:59:49.987Z,15.80
2023-04-02T07:02:26.823Z,15.40
2023-04-02T07:04:58.705Z,15.31
2023-04-02T07:07:26.873Z,15.34
2023-04-02T07:09:53.487Z,15.55
2023-04-02T07:12:24.047Z,15.44
2023-04-02T07:14:50.840Z,15.52
2023-04-02T07:17:18.229Z,15.58
2023-04-02T07:19:45.116Z,15.59
2023-04-02T07:22:11.950Z,15.84
2023-04-02T07:24:40.068Z,16.05
2023-04-02T07:27:06.747Z,16.08
2023-04-02T07:29:33.347Z,15.90
2023-04-02T07:31:59.936Z,16.00
2023-04-02T07:34:26.692Z,15.80
2023-04-02T07:36:53.375Z,15.52
2023-04-02T07:39:20.022Z,15.78
2023-04-02T07:41:56.181Z,15.81
2023-04-02T07:44:22.849Z,15.84
2023-04-02T07:46:49.746Z,15.87
2023-04-02T07:49:17.376Z,15.91
2023-04-02T07:51:43.992Z,15.93
2023-04-02T07:54:10.721Z,15.86
2023-04-02T07:56:37.644Z,15.87
2023-04-02T07:59:05.842Z,15.81
2023-04-02T08:01:32.492Z,15.88
2023-04-02T08:03:59.190Z,15.92
2023-04-02T08:06:25.997Z,15.95
2023-04-02T08:08:52.709Z,15.97
2023-04-02T08:11:19.466Z,15.91
2023-04-02T08:13:47.894Z,16.26
2023-04-02T08:16:16.064Z,16.24
2023-04-02T08:18:42.817Z,16.28
2023-04-02T08:21:10.691Z,16.24
2023-04-02T08:23:37.816Z,16.34
2023-04-02T08:26:05.473Z,16.25
2023-04-02T08:28:32.178Z,16.33
2023-04-02T08:30:59.007Z,16.59
2023-04-02T08:33:27.158Z,16.78
2023-04-02T08:35:53.903Z,16.79
2023-04-02T08:38:22.180Z,16.69
2023-04-02T08:40:51.190Z,16.97
2023-04-02T08:43:50.159Z,17.23
2023-04-02T08:46:23.884Z,17.41
2023-04-02T08:48:56.450Z,17.77
2023-04-02T08:51:25.952Z,18.24
2023-04-02T08:53:54.774Z,18.60
2023-04-02T08:56:29.071Z,18.58
2023-04-02T08:58:59.383Z,18.41
2023-04-02T09:01:36.054Z,18.11
2023-04-02T09:04:13.461Z,18.04
2023-04-02T09:06:40.831Z,18.05
2023-04-02T09:09:08.808Z,17.92
2023-04-02T09:11:39.734Z,17.59
2023-04-02T09:14:15.904Z,17.67
2023-04-02T09:16:46.712Z,17.82
2023-04-02T09:19:23.682Z,17.92
2023-04-02T09:22:05.131Z,18.09
2023-04-02T09:24:32.071Z,18.04
2023-04-02T09:26:58.909Z,18.09
2023-04-02T09:29:38.054Z,18.36
2023-04-02T09:32:18.435Z,18.69
2023-04-02T09:34:46.588Z,18.95
2023-04-02T09:37:17.684Z,19.09
2023-04-02T09:39:44.730Z,18.82
2023-04-02T09:42:30.839Z,19.04
2023-04-02T09:45:13.463Z,19.35
2023-04-02T09:47:42.285Z,19.40
2023-04-02T09:50:32.857Z,19.43
2023-04-02T09:53:26.335Z,19.54
2023-04-02T09:56:08.646Z,19.46
2023-04-02T09:58:35.508Z,19.57
2023-04-02T10:01:02.413Z,19.49
2023-04-02T10:03:31.629Z,19.58
2023-04-02T10:06:09.270Z,19.19
2023-04-02T10:08:37.455Z,19.04
2023-04-02T10:11:08.910Z,19.27
2023-04-02T10:13:52.198Z,19.39
2023-04-02T10:16:27.127Z,19.46
2023-04-02T10:18:57.788Z,19.39
2023-04-02T10:21:28.896Z,19.34
2023-04-02T10:23:55.886Z,19.27
2023-04-02T10:26:36.939Z,19.12
2023-04-02T10:29:19.710Z,19.00
2023-04-02T10:31:59.204Z,19.33
2023-04-02T10:34:35.252Z,19.47
2023-04-02T10:37:18.956Z,19.54
2023-04-02T10:39:50.502Z,19.59
2023-04-02T10:42:26.159Z,19.61
2023-04-02T10:44:59.780Z,19.72
2023-04-02T10:47:38.134Z,19.79
2023-04-02T10:50:22.301Z,19.77
2023-04-02T10:52:58.050Z,19.55
2023-04-02T10:55:28.240Z,19.63
2023-04-02T10:58:00.132Z,19.81
2023-04-02T11:00:34.916Z,19.82
2023-04-02T11:03:06.425Z,20.30
2023-04-02T11:05:40.613Z,20.57
2023-04-02T11:08:18.301Z,20.83
2023-04-02T11:10:49.044Z,20.90
2023-04-02T11:13:23.679Z,20.96
2023-04-02T11:15:50.759Z,21.04
2023-04-02T11:18:24.235Z,21.11
2023-04-02T11:21:06.548Z,21.24
2023-04-02T11:23:38.398Z,21.50
2023-04-02T11:26:34.363Z,21.86
2023-04-02T11:29:06.504Z,21.75
2023-04-02T11:31:33.908Z,21.82
2023-04-02T11:34:00.848Z,22.13
2023-04-02T11:37:01.027Z,22.88
2023-04-02T11:40:01.364Z,23.27
2023-04-02T11:42:30.868Z,23.33
2023-04-02T11:45:02.108Z,22.89
2023-04-02T11:47:29.704Z,22.41
2023-04-02T11:50:02.117Z,22.68
2023-04-02T11:52:36.414Z,22.45
2023-04-02T11:55:22.111Z,23.17
2023-04-02T11:58:08.416Z,23.59
2023-04-02T12:01:16.402Z,23.82
2023-04-02T12:04:01.443Z,24.62
2023-04-02T12:06:37.599Z,25.26
2023-04-02T12:09:19.359Z,23.44
2023-04-02T12:11:49.160Z,22.84
2023-04-02T12:14:41.490Z,22.72
2023-04-02T12:17:18.399Z,22.54
2023-04-02T12:19:53.089Z,22.55
2023-04-02T12:22:23.051Z,22.05
2023-04-02T12:24:52.710Z,21.50
2023-04-02T12:27:24.470Z,21.51
2023-04-02T12:29:51.226Z,22.92
2023-04-02T12:32:28.517Z,21.97
2023-04-02T12:34:57.806Z,22.81
2023-04-02T12:37:27.436Z,23.29
2023-04-02T12:39:56.996Z,23.25
2023-04-02T12:42:33.237Z,24.84
2023-04-02T12:45:00.537Z,25.37
2023-04-02T12:47:28.697Z,25.76
2023-04-02T12:49:57.058Z,24.16
2023-04-02T12:52:26.250Z,23.05
2023-04-02T12:54:54.633Z,22.33
2023-04-02T12:57:40.270Z,22.64
2023-04-02T13:00:30.159Z,22.38
2023-04-02T13:03:02.003Z,22.00
2023-04-02T13:05:34.922Z,22.81
2023-04-02T13:08:01.727Z,23.05
2023-04-02T13:10:28.571Z,23.43
2023-04-02T13:12:58.498Z,23.47
2023-04-02T13:15:28.757Z,23.72
2023-04-02T13:18:14.012Z,23.97
2023-04-02T13:20:41.912Z,23.46
2023-04-02T13:23:30.987Z,22.10
2023-04-02T13:25:59.640Z,21.75
2023-04-02T13:28:28.989Z,21.99
2023-04-02T13:30:55.992Z,22.75
2023-04-02T13:33:22.708Z,22.88
2023-04-02T13:35:49.535Z,23.08
2023-04-02T13:38:16.227Z,23.37
2023-04-02T13:40:43.049Z,23.73
2023-04-02T13:43:16.870Z,23.88
2023-04-02T13:45:48.669Z,23.79
2023-04-02T13:48:15.798Z,23.61
2023-04-02T13:50:42.785Z,23.41
2023-04-02T13:53:20.988Z,23.45
2023-04-02T13:55:48.076Z,23.05
2023-04-02T13:58:14.826Z,23.25
2023-04-02T14:00:41.523Z,23.50
2023-04-02T14:03:13.021Z,23.79
2023-04-02T14:05:48.053Z,24.17
2023-04-02T14:08:23.089Z,24.70
2023-04-02T14:11:16.827Z,24.50
2023-04-02T14:14:04.035Z,23.90
2023-04-02T14:16:50.236Z,23.72
2023-04-02T14:19:41.629Z,24.16
2023-04-02T14:22:21.375Z,23.89
2023-04-02T14:25:00.171Z,23.78
2023-04-02T14:27:40.222Z,23.83
2023-04-02T14:30:17.062Z,23.35
2023-04-02T14:32:53.272Z,23.37
2023-04-02T14:35:25.837Z,23.16
2023-04-02T14:38:03.849Z,23.09
2023-04-02T14:40:37.884Z,23.05
2023-04-02T14:43:11.600Z,22.78
2023-04-02T14:45:56.904Z,22.52
2023-04-02T14:48:37.045Z,22.65
2023-04-02T14:51:11.726Z,22.78
2023-04-02T14:53:50.484Z,22.49
2023-04-02T14:56:19.800Z,22.53
2023-04-02T14:58:51.526Z,22.94
2023-04-02T15:01:21.698Z,22.83
2023-04-02T15:03:55.627Z,22.85
2023-04-02T15:06:29.963Z,23.10
2023-04-02T15:09:09.483Z,23.69
2023-04-02T15:11:41.058Z,23.57
2023-04-02T15:14:16.502Z,23.58
2023-04-02T15:16:43.657Z,23.37
2023-04-02T15:19:13.280Z,22.71
2023-04-02T15:22:23.328Z,22.17
2023-04-02T15:25:02.701Z,22.52
2023-04-02T15:27:50.200Z,22.50
2023-04-02T15:30:22.501Z,22.08
2023-04-02T15:32:49.793Z,21.99
2023-04-02T15:35:26.436Z,21.85
2023-04-02T15:38:01.415Z,21.46
2023-04-02T15:40:51.235Z,21.39
2023-04-02T15:43:23.330Z,21.72
2023-04-02T15:46:06.166Z,21.76
2023-04-02T15:49:08.186Z,21.58
2023-04-02T15:51:56.262Z,21.81
2023-04-02T15:54:38.493Z,21.83
2023-04-02T15:57:19.386Z,21.65
2023-04-02T16:00:11.042Z,21.23
2023-04-02T16:02:51.557Z,21.55
2023-04-02T16:05:27.064Z,21.79
2023-04-02T16:08:09.382Z,21.55
2023-04-02T16:10:42.391Z,21.60
2023-04-02T16:13:17.874Z,21.91
2023-04-02T16:15:49.597Z,22.24
2023-04-02T16:18:28.562Z,21.81
2023-04-02T16:20:57.037Z,21.63
2023-04-02T16:23:31.647Z,21.51
2023-04-02T16:26:07.081Z,21.47
2023-04-02T16:28:40.030Z,21.71
2023-04-02T16:31:13.730Z,22.10
2023-04-02T16:33:54.032Z,22.11
2023-04-02T16:36:35.294Z,22.31
2023-04-02T16:39:10.069Z,21.78
2023-04-02T16:41:51.022Z,21.47
2023-04-02T16:44:29.910Z,21.25
2023-04-02T16:47:04.771Z,21.55
2023-04-02T16:49:39.576Z,21.78
2023-04-02T16:52:25.319Z,22.09
2023-04-02T16:55:11.060Z,21.90
2023-04-02T16:57:49.409Z,21.42
2023-04-02T17:00:23.721Z,20.87
2023-04-02T17:03:05.238Z,20.78
2023-04-02T17:05:34.157Z,20.43
2023-04-02T17:08:16.187Z,20.25
2023-04-02T17:10:49.731Z,20.36
2023-04-02T17:13:26.240Z,20.14
2023-04-02T17:16:02.657Z,19.98
2023-04-02T17:18:30.067Z,20.23
2023-04-02T17:21:02.118Z,20.15
2023-04-02T17:23:31.989Z,20.11
2023-04-02T17:26:05.721Z,19.89
2023-04-02T17:28:35.591Z,19.77
2023-04-02T17:31:06.573Z,19.74
2023-04-02T17:33:33.297Z,19.68
2023-04-02T17:36:24.286Z,19.75
2023-04-02T17:38:58.429Z,19.79
2023-04-02T17:41:34.317Z,19.80
2023-04-02T17:44:17.884Z,19.59
2023-04-02T17:46:49.091Z,19.42
2023-04-02T17:49:22.984Z,19.14
2023-04-02T17:51:55.765Z,19.25
2023-04-02T17:54:36.142Z,18.98
2023-04-02T17:57:19.522Z,19.11
2023-04-02T17:59:59.690Z,19.03
2023-04-02T18:02:41.605Z,18.88
2023-04-02T18:05:22.612Z,18.59
2023-04-02T18:07:58.676Z,18.16
2023-04-02T18:10:34.027Z,17.96
2023-04-02T18:13:11.298Z,17.73
2023-04-02T18:15:48.608Z,17.64
2023-04-02T18:18:33.039Z,17.67
2023-04-02T18:21:09.430Z,17.57
2023-04-02T18:23:47.337Z,17.42
2023-04-02T18:26:22.762Z,17.60
2023-04-02T18:28:58.445Z,17.51
2023-04-02T18:31:37.631Z,17.42
2023-04-02T18:34:33.472Z,17.43
2023-04-02T18:37:08.676Z,17.27
2023-04-02T18:39:44.828Z,17.08
2023-04-02T18:42:23.166Z,16.99
2023-04-02T18:44:58.175Z,17.09
2023-04-02T18:47:35.101Z,16.90
2023-04-02T18:50:13.896Z,16.89
2023-04-02T18:52:41.522Z,16.83
2023-04-02T18:55:15.690Z,16.54
2023-04-02T18:57:45.116Z,16.58
2023-04-02T19:00:28.440Z,16.72
2023-04-02T19:03:03.300Z,16.52
2023-04-02T19:05:39.312Z,16.45
2023-04-02T19:08:12.844Z,16.30
2023-04-02T19:10:43.434Z,16.24
2023-04-02T19:13:14.821Z,16.30
2023-04-02T19:15:55.164Z,16.20
2023-04-02T19:18:33.074Z,16.12
2023-04-02T19:21:10.404Z,16.10
2023-04-02T19:23:50.751Z,16.04
2023-04-02T19:26:22.152Z,15.95
2023-04-02T19:28:58.769Z,15.96
2023-04-02T19:31:42.334Z,15.88
2023-04-02T19:34:20.772Z,15.78
2023-04-02T19:36:51.178Z,15.60
2023-04-02T19:39:40.580Z,15.69
2023-04-02T19:42:17.580Z,15.90
2023-04-02T19:44:48.433Z,15.64
2023-04-02T19:47:17.633Z,15.52
2023-04-02T19:49:45.947Z,15.45
2023-04-02T19:52:12.883Z,15.58
2023-04-02T19:54:39.596Z,15.46
2023-04-02T19:57:06.400Z,15.41
2023-04-02T19:59:33.122Z,15.34
2023-04-02T20:01:59.815Z,15.28
2023-04-02T20:04:26.518Z,15.29
2023-04-02T20:06:54.556Z,15.23
2023-04-02T20:09:21.221Z,15.09
2023-04-02T20:11:47.869Z,14.96
2023-04-02T20:14:14.552Z,15.13
2023-04-02T20:16:42.222Z,15.05
2023-04-02T20:19:09.869Z,14.88
2023-04-02T20:21:37.381Z,14.79
2023-04-02T20:24:06.821Z,14.90
2023-04-02T20:26:34.544Z,15.10
2023-04-02T20:29:01.680Z,14.98
2023-04-02T20:31:28.399Z,14.92
2023-04-02T20:33:55.881Z,14.54
2023-04-02T20:36:23.078Z,14.76
2023-04-02T20:38:49.688Z,14.67
2023-04-02T20:41:18.138Z,14.71
2023-04-02T20:43:44.854Z,14.68
2023-04-02T20:46:12.559Z,14.52
2023-04-02T20:48:39.696Z,14.71
2023-04-02T20:51:08.624Z,14.71
2023-04-02T20:53:37.187Z,14.47
2023-04-02T20:56:04.963Z,14.39
2023-04-02T20:58:33.921Z,14.54
2023-04-02T21:01:09.288Z,14.20
2023-04-02T21:03:36.094Z,14.09
2023-04-02T21:06:02.917Z,14.04
2023-04-02T21:08:29.576Z,14.24
2023-04-02T21:11:02.120Z,14.12
2023-04-02T21:13:29.740Z,13.93
2023-04-02T21:15:57.960Z,14.07
2023-04-02T21:18:24.761Z,13.72
2023-04-02T21:20:57.678Z,13.42
2023-04-02T21:23:24.361Z,13.46
2023-04-02T21:25:56.067Z,13.59
2023-04-02T21:28:22.708Z,13.47
2023-04-02T21:30:49.428Z,13.73
2023-04-02T21:33:17.697Z,13.57
2023-04-02T21:35:44.378Z,13.63
2023-04-02T21:38:11.101Z,13.52
2023-04-02T21:40:37.728Z,13.50
2023-04-02T21:43:04.374Z,12.93
2023-04-02T21:45:31.088Z,13.26
2023-04-02T21:47:57.742Z,13.22
2023-04-02T21:50:25.856Z,13.05
2023-04-02T21:52:52.525Z,12.86
2023-04-02T21:55:19.176Z,13.23
2023-04-02T21:57:45.824Z,12.92
2023-04-02T22:00:13.890Z,13.10
2023-04-02T22:02:40.628Z,13.19
2023-04-02T22:05:07.886Z,13.23
2023-04-02T22:07:35.883Z,13.07
2023-04-02T22:10:02.638Z,13.06
2023-04-02T22:12:29.271Z,12.85
2023-04-02T22:14:55.969Z,13.04
2023-04-02T22:17:22.629Z,12.90
2023-04-02T22:19:49.232Z,13.02
2023-04-02T22:22:15.916Z,12.66
2023-04-02T22:24:43.972Z,12.77
2023-04-02T22:27:10.578Z,12.78
2023-04-02T22:29:37.222Z,12.98
2023-04-02T22:32:03.859Z,12.59
2023-04-02T22:34:30.641Z,12.52
2023-04-02T22:36:57.378Z,12.73
2023-04-02T22:39:24.045Z,12.44
2023-04-02T22:41:53.783Z,12.30
2023-04-02T22:44:20.391Z,12.55
2023-04-02T22:46:47.076Z,12.45
2023-04-02T22:49:13.815Z,12.18
2023-04-02T22:51:40.469Z,12.23
2023-04-02T22:54:08.442Z,12.37
2023-04-02T22:56:35.143Z,12.51
2023-04-02T22:59:04.176Z,11.58
2023-04-02T23:01:32.980Z,12.36
2023-04-02T23:03:59.935Z,12.44
2023-04-02T23:06:27.451Z,12.48
2023-04-02T23:08:54.191Z,12.25
2023-04-02T23:11:23.242Z,12.21
2023-04-02T23:13:52.347Z,12.09
2023-04-02T23:16:23.315Z,12.09
2023-04-02T23:18:50.198Z,12.49
2023-04-02T23:21:18.098Z,12.34
2023-04-02T23:23:45.580Z,11.99
2023-04-02T23:26:14.945Z,12.05
2023-04-02T23:28:41.992Z,12.11
2023-04-02T23:31:12.352Z,12.13
2023-04-02T23:33:40.472Z,12.14
2023-04-02T23:36:08.009Z,12.21
2023-04-02T23:38:34.705Z,11.96
2023-04-02T23:41:01.465Z,11.89
2023-04-02T23:43:28.190Z,12.29
2023-04-02T23:45:54.922Z,12.19
2023-04-02T23:48:21.692Z,12.15
2023-04-02T23:50:49.833Z,11.91
2023-04-02T23:53:16.606Z,12.11
2023-04-02T23:55:43.288Z,12.08
2023-04-02T23:58:10.166Z,12.07
